Skip Navigation LinksHome page > Weather > Current weather Skip Navigation Links

Current Weather

Chicago O'Hare Intl, Chicago

For information only: do not use for flight planning or navigation.
Latest weather
Observation time Saturday, December 5, 2020 12:51 AM CST
Local time Saturday, December 5, 2020 1:53 AM CST
Flight conditions Visual Meteorological Conditions
Winds
Wind direction North-Northwest (340°)
Wind speed 8 mph
Visibility 10 mi.
Sky condition
Ceiling unlimited
Cloud layer few clouds 3,000 ft.
Temperature 31°F
Dewpoint 25°F
Altimeter 30.06 in.Hg
Derived measurements
Relative humidity 78%
Wind chill 23°F
Density altitude -1330 ft.
Sea-level pressure 30.08 in.Hg
Remarks
Automated weather observing station with precipitation discriminator.
METAR KORD 050651Z 34007KT 10SM FEW030 M01/M04 A3006 RMK AO2 SLP185 T10061039

Settings

Location code

InnerDrive.Weather 4.0.6770.0 Release CLR 4.0.30319.42000
Copyright ©2018 Inner Drive Technology. All rights reserved. Portions Copyright ©1986-2018 David Braverman.

Find weather

Site navigation


Skip Navigation Links

Place info

Page info

PayPal - The safer, easier way to pay online!

Return home.

Copyright ©2020 Inner Drive Technology. Purveyors of fine, hand-crafted computer software. Page printed 2020-12-05T07:53:41 UTC.